Shinkai Maru — JJ4012 — position and weather

sailwx.info

Track history (hours):
 
Tides and Currents Weather Stations Pressure Air Temp Water Temp Dewpoint Dewpoint Depression Visibility Wind Speed Wind Dir Waves Ship Positions

Shinkai Maru

Last reported at 2017-Feb-24 18:17 UTC. Time now 2017-Feb-25 07:23 UTC.
Position N 34°14' E 134°59'.

Length 76 m; draft 4.1 m.

Type: Cargo ship. MMSI: 431301346.

Date/timePositionNaut miles runAvg speedWind from/ knotsBaromVisibWave heightAir tempDewpointWater temp
2017-Feb-24 18:17N 34°14' E 134°59'1213.0
2017-Feb-24 17:21N 34°25' E 135°00'1012.9
2017-Feb-24 16:33N 34°36' E 135°03'12 0.3
2017-Feb-22 22:25N 34°40' E 134°50'1112.9
2017-Feb-22 21:33N 34°37' E 135°02'2512.4
2017-Feb-22 19:33N 34°12' E 135°00'11 0.3
2017-Feb-21 00:27N 34°21' E 135°08'4 0.8
2017-Feb-20 19:09N 34°23' E 135°12'0 0.0
2017-Feb-20 12:21N 34°23' E 135°12'0 0.0
2017-Feb-20 05:33N 34°23' E 135°12'0 0.0
2017-Feb-20 04:33N 34°23' E 135°12'0 0.0
2017-Feb-20 03:26N 34°23' E 135°12'0 0.0
2017-Feb-20 02:18N 34°23' E 135°12'0 0.0
2017-Feb-20 01:24N 34°23' E 135°12'0 0.0
2017-Feb-20 00:24N 34°23' E 135°12'0 0.0
2017-Feb-19 22:09N 34°23' E 135°12'0 0.1
2017-Feb-19 21:32N 34°23' E 135°12'1210.5
2017-Feb-19 20:24N 34°33' E 135°04'9 9.5
2017-Feb-19 19:31N 34°36' E 134°55'6 0.2
2017-Feb-18 08:08N 34°40' E 134°50'610.1
2017-Feb-18 07:33N 34°37' E 134°56'1110.7
2017-Feb-18 06:33N 34°37' E 135°09'0 0.0
2017-Feb-18 05:32N 34°37' E 135°09'7 6.4
2017-Feb-18 04:32N 34°32' E 135°06'1812.6
2017-Feb-18 03:08N 34°15' E 134°60'712.5
2017-Feb-18 02:33N 34°08' E 135°01'243 6.0
2017-Feb-16 10:06N 35°12' E 139°45'610.8
2017-Feb-16 09:33N 35°18' E 139°44'10 9.6
2017-Feb-16 08:33N 35°27' E 139°47'1211.3
2017-Feb-16 07:32N 35°36' E 139°56'4 0.4
2017-Feb-15 22:16N 35°39' E 139°58'10 1.7
2017-Feb-15 16:34N 35°30' E 139°53'1211.6
2017-Feb-15 15:33N 35°21' E 139°45'1110.5
2017-Feb-15 14:32N 35°10' E 139°46'  
Track history (hours):
 
Tides and Currents Weather Stations Pressure Air Temp Water Temp Dewpoint Dewpoint Depression Visibility Wind Speed Wind Dir Waves Ship Positions

Shinkai Maru

Last reported at 2017-Feb-24 18:17 UTC. Time now 2017-Feb-25 07:23 UTC.
Position N 34°14' E 134°59'.

Length 76 m; draft 4.1 m.

Type: Cargo ship. MMSI: 431301346.

Date/timePositionNaut miles runAvg speedWind from/ knotsBaromVisibWave heightAir tempDewpointWater temp
2017-Feb-24 18:17N 34°14' E 134°59'1213.0
2017-Feb-24 17:21N 34°25' E 135°00'1012.9
2017-Feb-24 16:33N 34°36' E 135°03'12 0.3
2017-Feb-22 22:25N 34°40' E 134°50'1112.9
2017-Feb-22 21:33N 34°37' E 135°02'2512.4
2017-Feb-22 19:33N 34°12' E 135°00'11 0.3
2017-Feb-21 00:27N 34°21' E 135°08'4 0.8
2017-Feb-20 19:09N 34°23' E 135°12'0 0.0
2017-Feb-20 12:21N 34°23' E 135°12'0 0.0
2017-Feb-20 05:33N 34°23' E 135°12'0 0.0
2017-Feb-20 04:33N 34°23' E 135°12'0 0.0
2017-Feb-20 03:26N 34°23' E 135°12'0 0.0
2017-Feb-20 02:18N 34°23' E 135°12'0 0.0
2017-Feb-20 01:24N 34°23' E 135°12'0 0.0
2017-Feb-20 00:24N 34°23' E 135°12'0 0.0
2017-Feb-19 22:09N 34°23' E 135°12'0 0.1
2017-Feb-19 21:32N 34°23' E 135°12'1210.5
2017-Feb-19 20:24N 34°33' E 135°04'9 9.5
2017-Feb-19 19:31N 34°36' E 134°55'6 0.2
2017-Feb-18 08:08N 34°40' E 134°50'610.1
2017-Feb-18 07:33N 34°37' E 134°56'1110.7
2017-Feb-18 06:33N 34°37' E 135°09'0 0.0
2017-Feb-18 05:32N 34°37' E 135°09'7 6.4
2017-Feb-18 04:32N 34°32' E 135°06'1812.6
2017-Feb-18 03:08N 34°15' E 134°60'712.5
2017-Feb-18 02:33N 34°08' E 135°01'243 6.0
2017-Feb-16 10:06N 35°12' E 139°45'610.8
2017-Feb-16 09:33N 35°18' E 139°44'10 9.6
2017-Feb-16 08:33N 35°27' E 139°47'1211.3
2017-Feb-16 07:32N 35°36' E 139°56'4 0.4
2017-Feb-15 22:16N 35°39' E 139°58'10 1.7
2017-Feb-15 16:34N 35°30' E 139°53'1211.6
2017-Feb-15 15:33N 35°21' E 139°45'1110.5
2017-Feb-15 14:32N 35°10' E 139°46'  

Dump ship's entire track history